createdAt,value
2023-05-22T00:00:31.811Z,11.00
2023-05-22T00:02:58.797Z,11.15
2023-05-22T00:05:25.506Z,10.27
2023-05-22T00:07:52.012Z,11.50
2023-05-22T00:10:18.785Z,9.95
2023-05-22T00:12:45.529Z,11.27
2023-05-22T00:15:12.219Z,10.35
2023-05-22T00:17:39.044Z,10.15
2023-05-22T00:20:10.886Z,11.02
2023-05-22T00:22:37.919Z,12.23
2023-05-22T00:25:05.961Z,14.45
2023-05-22T00:27:33.818Z,11.00
2023-05-22T00:30:01.048Z,10.98
2023-05-22T00:32:27.790Z,11.60
2023-05-22T00:34:54.326Z,11.30
2023-05-22T00:37:20.922Z,11.23
2023-05-22T00:39:47.703Z,12.48
2023-05-22T00:42:14.236Z,10.57
2023-05-22T00:44:41.832Z,11.00
2023-05-22T00:47:08.396Z,11.13
2023-05-22T00:49:34.937Z,13.23
2023-05-22T00:52:02.590Z,12.00
2023-05-22T00:54:37.938Z,10.98
2023-05-22T00:57:09.710Z,11.27
2023-05-22T00:59:36.444Z,10.48
2023-05-22T01:02:06.348Z,11.02
2023-05-22T01:04:33.321Z,10.77
2023-05-22T01:07:03.008Z,12.02
2023-05-22T01:09:30.227Z,12.65
2023-05-22T01:12:31.930Z,10.77
2023-05-22T01:15:31.901Z,10.40
2023-05-22T01:18:27.507Z,10.27
2023-05-22T01:21:32.865Z,11.70
2023-05-22T01:24:43.384Z,11.00
2023-05-22T01:27:35.159Z,11.10
2023-05-22T01:30:34.813Z,11.88
2023-05-22T01:33:04.290Z,11.40
2023-05-22T01:35:34.098Z,11.45
2023-05-22T01:38:03.267Z,11.32
2023-05-22T01:40:31.774Z,11.20
2023-05-22T01:42:58.727Z,11.23
2023-05-22T01:45:26.045Z,11.32
2023-05-22T01:47:52.627Z,11.05
2023-05-22T01:50:21.109Z,11.13
2023-05-22T01:52:58.970Z,10.77
2023-05-22T01:55:40.361Z,11.38
2023-05-22T01:58:42.791Z,10.95
2023-05-22T02:01:14.107Z,10.27
2023-05-22T02:03:42.741Z,10.57
2023-05-22T02:06:13.739Z,11.18
2023-05-22T02:08:42.883Z,10.15
2023-05-22T02:11:13.650Z,11.07
2023-05-22T02:13:40.483Z,11.20
2023-05-22T02:16:18.015Z,11.45
2023-05-22T02:18:47.968Z,12.57
2023-05-22T02:21:22.156Z,12.57
2023-05-22T02:23:50.175Z,11.35
2023-05-22T02:26:16.687Z,11.00
2023-05-22T02:28:43.844Z,11.05
2023-05-22T02:31:10.632Z,11.50
2023-05-22T02:33:37.201Z,13.82
2023-05-22T02:36:03.992Z,11.00
2023-05-22T02:38:30.594Z,11.30
2023-05-22T02:40:57.126Z,11.07
2023-05-22T02:43:23.603Z,11.27
2023-05-22T02:45:58.668Z,11.65
2023-05-22T02:48:25.232Z,11.20
2023-05-22T02:50:54.692Z,10.85
2023-05-22T02:53:21.872Z,11.57
2023-05-22T02:55:48.449Z,10.60
2023-05-22T02:58:15.021Z,11.32
2023-05-22T03:00:41.981Z,11.27
2023-05-22T03:03:17.996Z,10.90
2023-05-22T03:05:45.984Z,10.73
2023-05-22T03:08:12.575Z,10.75
2023-05-22T03:10:52.922Z,13.65
2023-05-22T03:13:19.676Z,11.73
2023-05-22T03:15:46.308Z,11.80
2023-05-22T03:18:22.385Z,11.40
2023-05-22T03:20:49.143Z,11.35
2023-05-22T03:23:15.733Z,11.13
2023-05-22T03:25:48.050Z,11.27
2023-05-22T03:28:27.075Z,11.07
2023-05-22T03:30:53.622Z,11.15
2023-05-22T03:33:20.252Z,11.10
2023-05-22T03:35:46.733Z,11.48
2023-05-22T03:38:13.408Z,11.45
2023-05-22T03:40:40.215Z,11.80
2023-05-22T03:43:06.871Z,11.75
2023-05-22T03:45:33.552Z,12.23
2023-05-22T03:48:00.207Z,12.20
2023-05-22T03:50:27.835Z,12.60
2023-05-22T03:52:54.317Z,14.23
2023-05-22T03:55:21.372Z,11.90
2023-05-22T03:57:47.860Z,12.05
2023-05-22T04:00:16.919Z,13.43
2023-05-22T04:02:45.289Z,17.52
2023-05-22T04:05:12.226Z,16.13
2023-05-22T04:07:41.852Z,13.30
2023-05-22T04:10:09.042Z,15.60
2023-05-22T04:12:35.567Z,14.68
2023-05-22T04:15:02.256Z,15.27
2023-05-22T04:17:33.429Z,13.57
2023-05-22T04:20:03.292Z,19.42
2023-05-22T04:22:30.822Z,17.92
2023-05-22T04:24:57.557Z,18.48
2023-05-22T04:27:24.849Z,17.50
2023-05-22T04:29:51.401Z,16.80
2023-05-22T04:32:32.333Z,17.20
2023-05-22T04:35:00.526Z,18.55
2023-05-22T04:37:28.590Z,33.55
2023-05-22T04:39:58.181Z,33.60
2023-05-22T04:42:25.312Z,21.02
2023-05-22T04:44:57.961Z,20.45
2023-05-22T04:47:24.615Z,18.30
2023-05-22T04:49:51.703Z,16.98
2023-05-22T04:52:18.245Z,16.92
2023-05-22T04:54:46.645Z,15.25
2023-05-22T04:57:13.216Z,17.63
2023-05-22T04:59:40.147Z,15.90
2023-05-22T05:02:10.966Z,16.00
2023-05-22T05:04:37.819Z,15.02
2023-05-22T05:07:05.990Z,14.93
2023-05-22T05:09:33.164Z,15.77
2023-05-22T05:11:59.669Z,16.17
2023-05-22T05:14:26.217Z,15.20
2023-05-22T05:16:52.996Z,16.42
2023-05-22T05:19:26.337Z,21.55
2023-05-22T05:21:52.945Z,23.33
2023-05-22T05:24:20.967Z,27.65
2023-05-22T05:26:47.569Z,26.33
2023-05-22T05:29:14.078Z,23.05
2023-05-22T05:31:40.755Z,23.88
2023-05-22T05:34:07.623Z,24.52
2023-05-22T05:36:34.341Z,21.77
2023-05-22T05:39:00.974Z,21.58
2023-05-22T05:41:28.295Z,24.23
2023-05-22T05:43:57.341Z,22.58
2023-05-22T05:46:23.929Z,22.73
2023-05-22T05:48:50.507Z,24.48
2023-05-22T05:51:17.043Z,23.13
2023-05-22T05:53:43.543Z,23.67
2023-05-22T05:56:10.257Z,45.17
2023-05-22T05:58:37.165Z,37.33
2023-05-22T06:01:04.137Z,24.85
2023-05-22T06:03:31.239Z,29.02
2023-05-22T06:05:58.179Z,27.00
2023-05-22T06:08:24.854Z,22.40
2023-05-22T06:10:59.559Z,23.58
2023-05-22T06:13:26.052Z,16.75
2023-05-22T06:15:52.726Z,19.50
2023-05-22T06:18:19.393Z,18.45
2023-05-22T06:20:45.931Z,20.10
2023-05-22T06:23:12.507Z,29.33
2023-05-22T06:25:39.896Z,21.33
2023-05-22T06:28:06.623Z,17.88
2023-05-22T06:30:40.378Z,19.92
2023-05-22T06:33:07.863Z,21.75
2023-05-22T06:35:34.557Z,24.75
2023-05-22T06:38:01.193Z,21.45
2023-05-22T06:40:27.955Z,17.40
2023-05-22T06:42:59.103Z,16.55
2023-05-22T06:45:25.812Z,18.23
2023-05-22T06:47:54.049Z,16.17
2023-05-22T06:50:22.401Z,14.68
2023-05-22T06:52:49.292Z,15.73
2023-05-22T06:55:16.385Z,17.15
2023-05-22T06:57:42.923Z,14.52
2023-05-22T07:00:14.878Z,57.63
2023-05-22T07:02:41.512Z,37.88
2023-05-22T07:05:09.116Z,21.52
2023-05-22T07:07:35.923Z,21.63
2023-05-22T07:10:02.557Z,16.02
2023-05-22T07:12:29.485Z,14.93
2023-05-22T07:14:57.061Z,15.23
2023-05-22T07:17:23.615Z,17.60
2023-05-22T07:19:52.453Z,14.60
2023-05-22T07:22:25.122Z,15.18
2023-05-22T07:24:51.712Z,13.48
2023-05-22T07:27:20.763Z,12.95
2023-05-22T07:29:50.535Z,12.27
2023-05-22T07:32:17.094Z,16.35
2023-05-22T07:34:46.471Z,14.23
2023-05-22T07:37:14.250Z,19.20
2023-05-22T07:39:40.893Z,17.63
2023-05-22T07:42:08.113Z,19.88
2023-05-22T07:44:34.747Z,12.93
2023-05-22T07:47:01.261Z,11.32
2023-05-22T07:49:30.876Z,14.57
2023-05-22T07:51:57.424Z,17.23
2023-05-22T07:54:24.194Z,14.45
2023-05-22T07:56:52.090Z,13.38
2023-05-22T07:59:19.697Z,15.38
2023-05-22T08:01:46.348Z,12.13
2023-05-22T08:04:13.194Z,11.52
2023-05-22T08:06:39.979Z,12.43
2023-05-22T08:09:06.621Z,12.52
2023-05-22T08:11:34.116Z,11.43
2023-05-22T08:14:03.711Z,12.30
2023-05-22T08:16:30.967Z,12.35
2023-05-22T08:18:57.607Z,12.32
2023-05-22T08:21:24.176Z,11.02
2023-05-22T08:23:50.978Z,11.80
2023-05-22T08:26:17.564Z,11.57
2023-05-22T08:28:44.480Z,10.93
2023-05-22T08:31:11.944Z,9.70
2023-05-22T08:33:39.796Z,9.77
2023-05-22T08:36:06.843Z,11.52
2023-05-22T08:38:33.683Z,10.95
2023-05-22T08:41:00.290Z,12.13
2023-05-22T08:43:28.601Z,10.18
2023-05-22T08:46:04.357Z,11.32
2023-05-22T08:48:32.995Z,11.82
2023-05-22T08:51:05.653Z,12.45
2023-05-22T08:53:36.534Z,12.63
2023-05-22T08:56:08.809Z,11.70
2023-05-22T08:58:37.874Z,11.55
2023-05-22T09:01:06.767Z,11.15
2023-05-22T09:03:35.001Z,10.27
2023-05-22T09:06:04.552Z,10.80
2023-05-22T09:08:31.098Z,35.97
2023-05-22T09:10:57.803Z,23.55
2023-05-22T09:13:30.878Z,13.27
2023-05-22T09:16:15.042Z,11.82
2023-05-22T09:18:42.588Z,11.48
2023-05-22T09:21:25.964Z,10.88
2023-05-22T09:24:01.479Z,11.52
2023-05-22T09:26:29.564Z,11.65
2023-05-22T09:29:02.173Z,13.10
2023-05-22T09:31:29.730Z,13.30
2023-05-22T09:33:56.700Z,11.27
2023-05-22T09:36:33.027Z,12.32
2023-05-22T09:39:04.752Z,11.80
2023-05-22T09:41:36.753Z,12.70
2023-05-22T09:44:13.592Z,18.27
2023-05-22T09:46:47.663Z,11.07
2023-05-22T09:49:16.755Z,12.40
2023-05-22T09:51:48.332Z,12.63
2023-05-22T09:54:17.349Z,12.15
2023-05-22T09:56:48.492Z,11.68
2023-05-22T09:59:23.815Z,11.85
2023-05-22T10:01:50.741Z,15.57
2023-05-22T10:04:18.891Z,11.57
2023-05-22T10:06:53.685Z,12.85
2023-05-22T10:09:24.877Z,11.50
2023-05-22T10:11:56.523Z,12.07
2023-05-22T10:14:24.345Z,12.13
2023-05-22T10:16:51.493Z,14.23
2023-05-22T10:19:18.552Z,12.50
2023-05-22T10:21:47.353Z,13.10
2023-05-22T10:24:14.739Z,13.05
2023-05-22T10:26:44.081Z,12.93
2023-05-22T10:29:22.098Z,13.35
2023-05-22T10:32:19.161Z,13.77
2023-05-22T10:37:47.389Z,12.15
2023-05-22T10:40:28.695Z,13.73
2023-05-22T10:43:06.542Z,16.08
2023-05-22T10:45:33.556Z,11.90
2023-05-22T10:48:12.423Z,15.55
2023-05-22T10:50:40.972Z,14.82
2023-05-22T10:53:31.276Z,13.95
2023-05-22T10:56:02.954Z,13.52
2023-05-22T10:58:38.885Z,13.48
2023-05-22T11:01:20.375Z,14.27
2023-05-22T11:04:09.311Z,19.65
2023-05-22T11:06:49.966Z,15.55
2023-05-22T11:09:19.220Z,14.85
2023-05-22T11:11:47.432Z,15.30
2023-05-22T11:14:18.402Z,15.88
2023-05-22T11:16:45.048Z,17.05
2023-05-22T11:19:22.870Z,23.38
2023-05-22T11:21:50.656Z,15.02
2023-05-22T11:24:18.084Z,14.77
2023-05-22T11:27:01.267Z,14.50
2023-05-22T11:29:29.430Z,16.65
2023-05-22T11:31:58.478Z,18.35
2023-05-22T11:34:28.859Z,17.52
2023-05-22T11:37:01.940Z,17.23
2023-05-22T11:39:28.526Z,17.20
2023-05-22T11:41:55.323Z,23.65
2023-05-22T11:44:21.892Z,22.23
2023-05-22T11:46:48.575Z,22.05
2023-05-22T11:49:15.217Z,23.52
2023-05-22T11:51:42.180Z,25.80
2023-05-22T11:54:08.747Z,26.42
2023-05-22T11:56:35.263Z,33.65
2023-05-22T11:59:02.087Z,40.60
2023-05-22T12:01:28.665Z,41.20
2023-05-22T12:03:55.483Z,41.03
2023-05-22T12:06:22.420Z,39.00
2023-05-22T12:08:49.098Z,37.13
2023-05-22T12:11:16.614Z,35.30
2023-05-22T12:13:43.431Z,33.13
2023-05-22T12:16:24.148Z,33.55
2023-05-22T12:18:54.386Z,31.35
2023-05-22T12:21:22.117Z,41.28
2023-05-22T12:23:51.266Z,31.92
2023-05-22T12:26:18.182Z,33.67
2023-05-22T12:28:44.814Z,33.38
2023-05-22T12:31:11.468Z,31.52
2023-05-22T12:33:40.495Z,33.97
2023-05-22T12:36:08.035Z,32.58
2023-05-22T12:38:35.645Z,47.78
2023-05-22T12:41:02.293Z,33.90
2023-05-22T12:43:28.902Z,39.67
2023-05-22T12:45:55.619Z,38.72
2023-05-22T12:48:22.964Z,53.22
2023-05-22T12:50:49.510Z,41.22
2023-05-22T12:53:16.037Z,35.85
2023-05-22T12:55:43.407Z,36.25
2023-05-22T12:58:10.040Z,36.05
2023-05-22T13:00:36.639Z,37.25
2023-05-22T13:03:04.243Z,36.50
2023-05-22T13:05:31.073Z,40.33
2023-05-22T13:07:57.744Z,41.95
2023-05-22T13:10:24.360Z,39.95
2023-05-22T13:12:51.599Z,37.10
2023-05-22T13:15:18.716Z,40.90
2023-05-22T13:17:45.810Z,41.38
2023-05-22T13:20:13.408Z,40.17
2023-05-22T13:22:41.714Z,42.28
2023-05-22T13:25:08.883Z,33.97
2023-05-22T13:27:35.393Z,37.95
2023-05-22T13:30:02.002Z,37.95
2023-05-22T13:32:28.593Z,36.45
2023-05-22T13:34:55.193Z,36.08
2023-05-22T13:37:21.913Z,35.85
2023-05-22T13:39:48.498Z,34.28
2023-05-22T13:42:15.492Z,35.25
2023-05-22T13:44:42.121Z,31.02
2023-05-22T13:47:08.828Z,31.25
2023-05-22T13:49:35.472Z,32.03
2023-05-22T13:52:02.011Z,36.10
2023-05-22T13:54:28.616Z,30.65
2023-05-22T13:56:57.584Z,16.80
2023-05-22T13:59:24.256Z,10.65
2023-05-22T14:01:50.797Z,9.88
2023-05-22T14:04:17.451Z,8.60
2023-05-22T14:06:44.005Z,7.70
2023-05-22T14:09:10.698Z,7.75
2023-05-22T14:11:37.325Z,7.00
2023-05-22T14:14:03.961Z,9.18
2023-05-22T14:16:30.598Z,6.72
2023-05-22T14:18:57.314Z,12.70
2023-05-22T14:21:23.891Z,8.15
2023-05-22T14:23:50.541Z,6.80
2023-05-22T14:26:17.299Z,7.47
2023-05-22T14:28:44.094Z,7.55
2023-05-22T14:31:10.881Z,6.60
2023-05-22T14:33:37.512Z,6.70
2023-05-22T14:36:04.472Z,6.32
2023-05-22T14:38:33.726Z,6.07
2023-05-22T14:41:03.470Z,6.45
2023-05-22T14:43:30.169Z,6.38
2023-05-22T14:45:57.991Z,6.43
2023-05-22T14:48:26.273Z,6.45
2023-05-22T14:50:55.806Z,6.95
2023-05-22T14:53:23.189Z,8.10
2023-05-22T14:55:49.763Z,7.75
2023-05-22T14:58:16.347Z,6.93
2023-05-22T15:00:42.973Z,6.30
2023-05-22T15:03:09.610Z,6.47
2023-05-22T15:05:36.329Z,5.97
2023-05-22T15:08:02.913Z,7.53
2023-05-22T15:10:29.618Z,6.60
2023-05-22T15:12:56.512Z,6.35
2023-05-22T15:15:23.132Z,6.70
2023-05-22T15:17:49.762Z,5.93
2023-05-22T15:20:16.460Z,6.20
2023-05-22T15:22:42.988Z,6.20
2023-05-22T15:25:12.578Z,6.57
2023-05-22T15:27:39.656Z,5.90
2023-05-22T15:30:09.567Z,6.57
2023-05-22T15:32:37.330Z,6.55
2023-05-22T15:35:05.613Z,6.57
2023-05-22T15:37:33.702Z,9.80
2023-05-22T15:40:01.668Z,6.13
2023-05-22T15:42:28.617Z,6.55
2023-05-22T15:44:55.540Z,6.93
2023-05-22T15:47:22.171Z,5.90
2023-05-22T15:49:48.720Z,9.15
2023-05-22T15:52:15.585Z,5.57
2023-05-22T15:54:42.196Z,8.95
2023-05-22T15:57:08.712Z,15.52
2023-05-22T15:59:35.246Z,17.50
2023-05-22T16:02:01.778Z,18.30
2023-05-22T16:04:28.318Z,18.45
2023-05-22T16:06:54.875Z,18.40
2023-05-22T16:09:21.479Z,20.92
2023-05-22T16:11:48.042Z,18.98
2023-05-22T16:14:14.611Z,17.42
2023-05-22T16:16:41.190Z,18.40
2023-05-22T16:19:08.071Z,19.40
2023-05-22T16:21:34.679Z,20.58
2023-05-22T16:24:01.253Z,18.20
2023-05-22T16:26:27.790Z,18.40
2023-05-22T16:28:54.283Z,18.75
2023-05-22T16:31:20.850Z,17.67
2023-05-22T16:33:47.422Z,18.50
2023-05-22T16:36:13.939Z,20.48
2023-05-22T16:38:41.975Z,20.08
2023-05-22T16:41:08.538Z,20.83
2023-05-22T16:43:36.645Z,19.45
2023-05-22T16:46:03.194Z,19.13
2023-05-22T16:48:29.777Z,16.27
2023-05-22T16:50:56.297Z,17.63
2023-05-22T16:53:22.841Z,16.75
2023-05-22T16:55:49.368Z,17.27
2023-05-22T16:58:15.910Z,18.20
2023-05-22T17:00:42.919Z,19.15
2023-05-22T17:03:11.627Z,15.85
2023-05-22T17:05:38.769Z,16.10
2023-05-22T17:08:06.383Z,15.95
2023-05-22T17:10:32.928Z,14.65
2023-05-22T17:12:59.491Z,15.30
2023-05-22T17:15:26.120Z,14.38
2023-05-22T17:17:52.705Z,14.05
2023-05-22T17:20:22.961Z,14.77
2023-05-22T17:22:50.092Z,13.35
2023-05-22T17:25:17.012Z,12.63
2023-05-22T17:27:43.921Z,12.75
2023-05-22T17:30:11.326Z,18.70
2023-05-22T17:32:38.049Z,23.88
2023-05-22T17:35:06.585Z,26.20
2023-05-22T17:37:33.574Z,28.42
2023-05-22T17:40:00.259Z,26.52
2023-05-22T17:42:26.969Z,29.38
2023-05-22T17:44:53.507Z,29.45
2023-05-22T17:47:20.080Z,30.13
2023-05-22T17:49:46.780Z,26.10
2023-05-22T17:52:14.647Z,27.75
2023-05-22T17:54:41.279Z,33.90
2023-05-22T17:57:07.957Z,37.17
2023-05-22T17:59:34.465Z,32.90
2023-05-22T18:02:01.253Z,33.08
2023-05-22T18:04:27.990Z,33.05
2023-05-22T18:06:54.529Z,36.97
2023-05-22T18:09:21.149Z,39.28
2023-05-22T18:11:49.956Z,34.95
2023-05-22T18:14:16.528Z,39.55
2023-05-22T18:16:43.124Z,34.20
2023-05-22T18:19:09.808Z,37.90
2023-05-22T18:21:39.639Z,47.08
2023-05-22T18:24:06.355Z,44.35
2023-05-22T18:26:32.947Z,42.25
2023-05-22T18:28:59.579Z,55.97
2023-05-22T18:31:26.302Z,39.75
2023-05-22T18:33:52.933Z,45.38
2023-05-22T18:36:19.574Z,37.13
2023-05-22T18:38:46.200Z,39.38
2023-05-22T18:41:12.737Z,39.90
2023-05-22T18:43:39.346Z,42.50
2023-05-22T18:46:05.873Z,41.95
2023-05-22T18:48:33.105Z,40.33
2023-05-22T18:51:00.150Z,41.42
2023-05-22T18:53:27.273Z,46.65
2023-05-22T18:55:54.067Z,41.78
2023-05-22T18:58:21.027Z,41.90
2023-05-22T19:00:48.214Z,45.03
2023-05-22T19:03:15.057Z,43.35
2023-05-22T19:05:41.665Z,52.97
2023-05-22T19:08:08.365Z,45.33
2023-05-22T19:10:34.914Z,44.55
2023-05-22T19:13:01.514Z,45.10
2023-05-22T19:15:28.106Z,37.00
2023-05-22T19:17:54.769Z,41.50
2023-05-22T19:20:22.896Z,38.97
2023-05-22T19:22:50.930Z,40.58
2023-05-22T19:25:17.905Z,43.28
2023-05-22T19:27:44.815Z,39.35
2023-05-22T19:30:14.884Z,37.58
2023-05-22T19:32:41.645Z,37.38
2023-05-22T19:35:08.844Z,35.63
2023-05-22T19:37:35.427Z,37.33
2023-05-22T19:40:01.986Z,32.25
2023-05-22T19:42:28.483Z,31.83
2023-05-22T19:44:55.264Z,28.63
2023-05-22T19:47:21.809Z,26.83
2023-05-22T19:49:48.401Z,17.80
2023-05-22T19:52:14.914Z,17.73
2023-05-22T19:54:41.590Z,13.88
2023-05-22T19:57:08.156Z,18.77
2023-05-22T19:59:36.653Z,13.60
2023-05-22T20:02:03.855Z,13.05
2023-05-22T20:04:31.520Z,12.27
2023-05-22T20:07:02.130Z,11.85
2023-05-22T20:09:28.775Z,12.77
2023-05-22T20:11:55.319Z,12.55
2023-05-22T20:14:21.887Z,12.65
2023-05-22T20:16:48.499Z,11.73
2023-05-22T20:19:15.307Z,12.48
2023-05-22T20:21:41.907Z,11.02
2023-05-22T20:24:24.996Z,11.60
2023-05-22T20:26:52.354Z,11.30
2023-05-22T20:29:19.247Z,10.98
2023-05-22T20:31:46.500Z,10.95
2023-05-22T20:34:13.138Z,11.23
2023-05-22T20:36:42.324Z,11.20
2023-05-22T20:39:11.636Z,10.98
2023-05-22T20:41:38.492Z,11.55
2023-05-22T20:44:05.180Z,11.32
2023-05-22T20:46:32.121Z,11.00
2023-05-22T20:48:59.428Z,13.63
2023-05-22T20:51:32.336Z,11.93
2023-05-22T20:54:00.144Z,10.63
2023-05-22T20:56:27.189Z,10.20
2023-05-22T20:58:54.907Z,11.70
2023-05-22T21:01:24.999Z,11.77
2023-05-22T21:03:56.203Z,9.93
2023-05-22T21:06:23.287Z,15.00
2023-05-22T21:08:51.374Z,10.77
2023-05-22T21:11:19.804Z,14.05
2023-05-22T21:13:46.347Z,9.60
2023-05-22T21:16:12.949Z,11.10
2023-05-22T21:18:39.644Z,11.32
2023-05-22T21:21:06.181Z,11.02
2023-05-22T21:23:32.660Z,12.38
2023-05-22T21:25:59.251Z,18.08
2023-05-22T21:28:25.872Z,12.48
2023-05-22T21:30:52.394Z,13.00
2023-05-22T21:33:18.964Z,12.88
2023-05-22T21:35:45.586Z,13.07
2023-05-22T21:38:12.264Z,12.60
2023-05-22T21:40:40.670Z,12.85
2023-05-22T21:43:07.401Z,13.70
2023-05-22T21:45:34.212Z,12.95
2023-05-22T21:48:01.012Z,12.90
2023-05-22T21:50:27.590Z,13.05
2023-05-22T21:52:54.093Z,12.02
2023-05-22T21:55:21.236Z,13.25
2023-05-22T21:57:47.786Z,13.25
2023-05-22T22:00:15.311Z,14.40
2023-05-22T22:02:41.952Z,13.05
2023-05-22T22:05:08.939Z,13.00
2023-05-22T22:07:35.491Z,12.73
2023-05-22T22:10:02.038Z,13.57
2023-05-22T22:12:28.557Z,14.18
2023-05-22T22:14:57.653Z,11.15
2023-05-22T22:17:24.258Z,11.98
2023-05-22T22:19:53.357Z,12.13
2023-05-22T22:22:22.393Z,13.07
2023-05-22T22:24:48.902Z,13.32
2023-05-22T22:27:15.549Z,11.88
2023-05-22T22:29:43.508Z,12.35
2023-05-22T22:32:10.096Z,14.23
2023-05-22T22:34:37.568Z,12.05
2023-05-22T22:37:05.869Z,12.27
2023-05-22T22:39:32.440Z,12.90
2023-05-22T22:42:04.859Z,12.55
2023-05-22T22:44:32.294Z,14.23
2023-05-22T22:46:59.052Z,12.63
2023-05-22T22:49:25.631Z,12.43
2023-05-22T22:51:52.413Z,14.52
2023-05-22T22:54:18.974Z,15.82
2023-05-22T22:56:49.658Z,15.00
2023-05-22T22:59:17.020Z,15.27
2023-05-22T23:01:43.794Z,13.20
2023-05-22T23:04:10.561Z,14.20
2023-05-22T23:06:37.189Z,16.52
2023-05-22T23:09:03.964Z,14.57
2023-05-22T23:11:37.169Z,15.57
2023-05-22T23:14:08.808Z,14.52
2023-05-22T23:16:36.970Z,14.63
2023-05-22T23:19:08.699Z,14.98
2023-05-22T23:21:35.942Z,16.60
2023-05-22T23:24:04.751Z,20.58
2023-05-22T23:26:32.056Z,14.40
2023-05-22T23:28:59.844Z,14.95
2023-05-22T23:31:29.989Z,16.17
2023-05-22T23:33:57.573Z,15.40
2023-05-22T23:36:24.624Z,16.17
2023-05-22T23:38:51.502Z,15.18
2023-05-22T23:41:18.553Z,15.68
2023-05-22T23:43:46.113Z,15.25
2023-05-22T23:46:13.932Z,15.60
2023-05-22T23:48:42.019Z,14.90
2023-05-22T23:51:09.634Z,18.70
2023-05-22T23:53:36.883Z,19.92
2023-05-22T23:56:04.648Z,15.10
2023-05-22T23:58:32.036Z,16.40
